createdAt,value
2022-09-04T00:00:10.341Z,12.18
2022-09-04T00:02:59.212Z,11.93
2022-09-04T00:05:32.561Z,11.90
2022-09-04T00:08:24.579Z,11.27
2022-09-04T00:10:58.077Z,11.40
2022-09-04T00:13:32.966Z,11.00
2022-09-04T00:16:09.661Z,12.20
2022-09-04T00:18:42.975Z,11.20
2022-09-04T00:21:18.465Z,11.32
2022-09-04T00:23:53.807Z,10.95
2022-09-04T00:26:42.293Z,10.95
2022-09-04T00:29:19.584Z,10.80
2022-09-04T00:31:59.195Z,10.93
2022-09-04T00:34:44.601Z,10.75
2022-09-04T00:37:18.752Z,10.60
2022-09-04T00:39:55.044Z,10.93
2022-09-04T00:42:37.748Z,10.73
2022-09-04T00:45:24.404Z,10.63
2022-09-04T00:48:25.650Z,10.75
2022-09-04T00:51:11.702Z,10.23
2022-09-04T00:54:09.434Z,11.10
2022-09-04T00:57:14.266Z,10.32
2022-09-04T01:00:07.527Z,10.88
2022-09-04T01:02:58.888Z,11.30
2022-09-04T01:05:41.190Z,10.20
2022-09-04T01:08:23.779Z,10.05
2022-09-04T01:11:05.740Z,10.10
2022-09-04T01:13:41.883Z,10.60
2022-09-04T01:16:16.717Z,10.95
2022-09-04T01:18:56.231Z,9.88
2022-09-04T01:24:54.368Z,9.65
2022-09-04T01:27:31.668Z,10.20
2022-09-04T01:30:08.320Z,9.40
2022-09-04T01:32:46.948Z,9.52
2022-09-04T01:35:35.519Z,10.15
2022-09-04T01:38:17.006Z,9.38
2022-09-04T01:40:50.886Z,9.38
2022-09-04T01:43:22.908Z,9.20
2022-09-04T01:46:22.327Z,10.40
2022-09-04T01:48:56.466Z,9.55
2022-09-04T01:51:34.355Z,10.07
2022-09-04T01:54:13.843Z,9.35
2022-09-04T01:56:49.967Z,9.70
2022-09-04T01:59:27.996Z,9.40
2022-09-04T02:02:03.580Z,8.93
2022-09-04T02:04:41.259Z,10.10
2022-09-04T02:07:30.124Z,9.68
2022-09-04T02:10:08.341Z,9.20
2022-09-04T02:12:48.096Z,9.55
2022-09-04T02:15:33.579Z,10.15
2022-09-04T02:18:15.125Z,8.98
2022-09-04T02:20:52.019Z,8.70
2022-09-04T02:23:30.993Z,10.10
2022-09-04T02:26:09.390Z,9.65
2022-09-04T02:28:48.669Z,9.70
2022-09-04T02:31:30.158Z,9.65
2022-09-04T02:34:07.562Z,8.75
2022-09-04T02:36:44.123Z,9.48
2022-09-04T02:39:30.189Z,8.90
2022-09-04T02:42:10.880Z,9.15
2022-09-04T02:44:48.250Z,9.32
2022-09-04T02:47:29.225Z,9.25
2022-09-04T02:50:04.593Z,9.15
2022-09-04T02:52:46.317Z,8.82
2022-09-04T02:55:32.378Z,8.93
2022-09-04T02:58:15.827Z,8.82
2022-09-04T03:00:51.357Z,9.98
2022-09-04T03:03:28.843Z,9.23
2022-09-04T03:06:10.238Z,9.77
2022-09-04T03:08:46.078Z,9.82
2022-09-04T03:11:22.286Z,10.40
2022-09-04T03:13:54.434Z,9.32
2022-09-04T03:16:29.436Z,9.75
2022-09-04T03:19:18.568Z,9.90
2022-09-04T03:21:54.634Z,9.15
2022-09-04T03:24:27.723Z,9.20
2022-09-04T03:27:00.869Z,10.50
2022-09-04T03:29:39.487Z,10.32
2022-09-04T03:32:17.201Z,9.73
2022-09-04T03:34:55.171Z,10.40
2022-09-04T03:37:44.284Z,10.60
2022-09-04T03:40:22.914Z,10.57
2022-09-04T03:43:08.149Z,12.07
2022-09-04T03:45:50.605Z,10.43
2022-09-04T03:48:35.884Z,10.38
2022-09-04T03:51:17.141Z,10.68
2022-09-04T03:53:53.706Z,10.82
2022-09-04T03:56:37.676Z,9.77
2022-09-04T04:01:48.605Z,10.15
2022-09-04T04:04:36.261Z,10.90
2022-09-04T04:07:14.099Z,10.15
2022-09-04T04:10:00.985Z,10.30
2022-09-04T04:12:56.914Z,9.52
2022-09-04T04:15:34.598Z,9.85
2022-09-04T04:18:39.133Z,9.23
2022-09-04T04:24:19.002Z,10.55
2022-09-04T04:26:59.822Z,17.02
2022-09-04T04:29:45.799Z,12.82
2022-09-04T04:32:26.510Z,8.88
2022-09-04T04:35:11.636Z,9.00
2022-09-04T04:37:53.515Z,9.20
2022-09-04T04:40:41.314Z,8.82
2022-09-04T04:43:18.634Z,7.95
2022-09-04T04:45:55.710Z,9.02
2022-09-04T04:48:54.265Z,8.32
2022-09-04T04:51:44.032Z,8.25
2022-09-04T04:54:28.647Z,7.25
2022-09-04T04:57:09.867Z,6.60
2022-09-04T04:59:45.054Z,6.70
2022-09-04T05:02:24.109Z,6.95
2022-09-04T05:05:03.477Z,6.82
2022-09-04T05:07:41.798Z,6.10
2022-09-04T05:10:20.187Z,6.55
2022-09-04T05:13:12.814Z,6.28
2022-09-04T05:16:08.010Z,5.35
2022-09-04T05:18:48.251Z,5.53
2022-09-04T05:21:23.864Z,4.63
2022-09-04T05:23:59.808Z,5.00
2022-09-04T05:26:37.868Z,4.82
2022-09-04T05:29:14.794Z,4.60
2022-09-04T05:31:50.423Z,5.10
2022-09-04T05:34:29.261Z,4.95
2022-09-04T05:37:08.505Z,5.18
2022-09-04T05:39:50.316Z,4.82
2022-09-04T05:42:42.996Z,4.53
2022-09-04T05:45:23.190Z,6.28
2022-09-04T05:48:03.482Z,5.47
2022-09-04T05:50:51.903Z,5.32
2022-09-04T05:53:42.091Z,5.85
2022-09-04T05:56:29.006Z,5.82
2022-09-04T05:59:12.794Z,5.20
2022-09-04T06:02:04.622Z,12.20
2022-09-04T06:04:56.950Z,4.35
2022-09-04T06:07:32.893Z,4.05
2022-09-04T06:10:12.566Z,3.90
2022-09-04T06:13:10.817Z,4.63
2022-09-04T06:15:51.177Z,4.15
2022-09-04T06:18:40.934Z,2.85
2022-09-04T06:21:28.236Z,2.22
2022-09-04T06:24:10.642Z,2.78
2022-09-04T06:26:58.036Z,3.05
2022-09-04T06:29:43.039Z,2.03
2022-09-04T06:32:32.684Z,2.60
2022-09-04T06:35:33.543Z,2.55
2022-09-04T06:38:18.370Z,2.58
2022-09-04T06:41:04.329Z,3.63
2022-09-04T06:43:41.688Z,3.00
2022-09-04T06:46:23.726Z,16.00
2022-09-04T06:49:00.800Z,3.15
2022-09-04T06:51:44.567Z,2.85
2022-09-04T06:57:04.021Z,2.60
2022-09-04T06:59:47.722Z,4.07
2022-09-04T07:05:05.150Z,3.70
2022-09-04T07:07:45.162Z,3.10
2022-09-04T07:10:17.666Z,3.75
2022-09-04T07:13:30.003Z,3.60
2022-09-04T07:16:16.622Z,2.90
2022-09-04T07:19:11.758Z,3.28
2022-09-04T07:21:52.373Z,3.50
2022-09-04T07:24:46.208Z,2.78
2022-09-04T07:27:27.010Z,3.17
2022-09-04T07:30:03.063Z,3.00
2022-09-04T07:32:39.244Z,3.50
2022-09-04T07:35:16.627Z,3.13
2022-09-04T07:37:58.762Z,2.70
2022-09-04T07:40:38.227Z,2.72
2022-09-04T07:43:30.182Z,3.05
2022-09-04T07:46:09.723Z,4.70
2022-09-04T07:48:45.277Z,2.53
2022-09-04T07:51:17.825Z,2.60
2022-09-04T07:54:22.920Z,4.47
2022-09-04T07:57:13.545Z,2.50
2022-09-04T08:00:02.875Z,2.22
2022-09-04T08:03:01.831Z,2.20
2022-09-04T08:05:33.365Z,2.60
2022-09-04T08:08:33.768Z,2.47
2022-09-04T08:11:33.564Z,3.25
2022-09-04T08:14:22.722Z,1.80
2022-09-04T08:17:05.672Z,2.38
2022-09-04T08:19:46.059Z,2.42
2022-09-04T08:22:31.316Z,2.00
2022-09-04T08:25:11.351Z,1.80
2022-09-04T08:28:00.116Z,1.80
2022-09-04T08:30:36.958Z,1.88
2022-09-04T08:33:43.473Z,1.55
2022-09-04T08:36:24.178Z,1.60
2022-09-04T08:39:08.592Z,1.52
2022-09-04T08:42:17.190Z,1.75
2022-09-04T08:45:24.855Z,1.70
2022-09-04T08:48:21.069Z,1.67
2022-09-04T08:51:40.293Z,1.67
2022-09-04T08:54:36.217Z,1.63
2022-09-04T08:57:29.992Z,1.52
2022-09-04T09:03:23.066Z,1.50
2022-09-04T09:06:40.053Z,1.52
2022-09-04T09:09:51.219Z,1.67
2022-09-04T09:12:53.934Z,1.50
2022-09-04T09:15:46.046Z,2.60
2022-09-04T09:18:35.873Z,1.70
2022-09-04T09:21:10.564Z,1.70
2022-09-04T09:23:46.557Z,1.65
2022-09-04T09:26:26.678Z,1.83
2022-09-04T09:29:32.081Z,1.70
2022-09-04T09:32:41.464Z,1.88
2022-09-04T09:35:59.904Z,2.00
2022-09-04T09:39:00.170Z,1.98
2022-09-04T09:42:14.103Z,1.40
2022-09-04T09:45:15.423Z,1.77
2022-09-04T09:48:20.727Z,1.40
2022-09-04T09:51:35.585Z,1.25
2022-09-04T09:54:31.960Z,1.70
2022-09-04T09:57:40.507Z,1.50
2022-09-04T10:00:25.467Z,2.00
2022-09-04T10:03:28.550Z,1.40
2022-09-04T10:06:49.367Z,1.65
2022-09-04T10:09:55.468Z,2.15
2022-09-04T10:13:10.128Z,1.95
2022-09-04T10:16:20.597Z,1.85
2022-09-04T10:19:16.841Z,1.77
2022-09-04T10:22:27.517Z,5.15
2022-09-04T10:25:25.072Z,1.85
2022-09-04T10:28:33.432Z,2.50
2022-09-04T10:31:47.841Z,2.05
2022-09-04T10:35:03.559Z,1.90
2022-09-04T10:37:53.410Z,2.00
2022-09-04T10:40:50.655Z,13.82
2022-09-04T10:44:00.288Z,1.70
2022-09-04T10:46:38.806Z,2.50
2022-09-04T10:49:37.604Z,2.13
2022-09-04T10:52:37.086Z,1.40
2022-09-04T10:55:37.044Z,1.40
2022-09-04T10:58:29.361Z,2.10
2022-09-04T11:01:23.643Z,2.20
2022-09-04T11:04:22.836Z,2.00
2022-09-04T11:07:10.620Z,1.77
2022-09-04T11:10:09.013Z,1.98
2022-09-04T11:13:17.075Z,2.00
2022-09-04T11:16:01.669Z,1.98
2022-09-04T11:19:10.175Z,2.20
2022-09-04T11:22:25.088Z,2.20
2022-09-04T11:25:21.129Z,2.65
2022-09-04T11:28:09.384Z,2.13
2022-09-04T11:30:57.735Z,1.70
2022-09-04T11:34:14.456Z,1.85
2022-09-04T11:37:40.654Z,1.80
2022-09-04T11:40:46.395Z,1.95
2022-09-04T11:43:59.741Z,1.80
2022-09-04T11:46:52.840Z,1.85
2022-09-04T11:49:44.267Z,1.67
2022-09-04T11:52:23.005Z,1.90
2022-09-04T11:55:17.161Z,1.60
2022-09-04T11:57:59.798Z,1.80
2022-09-04T12:03:40.263Z,1.70
2022-09-04T12:06:37.501Z,2.05
2022-09-04T12:09:41.955Z,1.60
2022-09-04T12:12:40.675Z,1.65
2022-09-04T12:15:36.379Z,1.88
2022-09-04T12:21:43.136Z,1.90
2022-09-04T12:24:46.740Z,1.52
2022-09-04T12:28:19.372Z,1.40
2022-09-04T12:31:01.980Z,1.83
2022-09-04T12:33:49.553Z,1.77
2022-09-04T12:36:54.524Z,1.50
2022-09-04T12:40:03.978Z,1.23
2022-09-04T12:42:38.887Z,1.35
2022-09-04T12:45:21.076Z,1.52
2022-09-04T12:47:58.843Z,1.70
2022-09-04T12:50:37.501Z,1.38
2022-09-04T12:53:40.413Z,1.60
2022-09-04T12:59:15.948Z,1.35
2022-09-04T13:02:00.967Z,4.07
2022-09-04T13:04:39.373Z,1.88
2022-09-04T13:07:30.067Z,1.85
2022-09-04T13:10:16.593Z,1.20
2022-09-04T13:12:57.264Z,1.75
2022-09-04T13:15:49.884Z,1.30
2022-09-04T13:18:37.283Z,1.80
2022-09-04T13:21:19.769Z,1.75
2022-09-04T13:24:02.121Z,1.37
2022-09-04T13:26:48.113Z,1.40
2022-09-04T13:29:25.448Z,1.23
2022-09-04T13:32:10.388Z,1.65
2022-09-04T13:34:58.720Z,1.67
2022-09-04T13:37:34.250Z,1.73
2022-09-04T13:40:38.668Z,1.50
2022-09-04T13:43:46.899Z,1.20
2022-09-04T13:46:19.563Z,1.23
2022-09-04T13:48:54.389Z,1.27
2022-09-04T13:51:29.823Z,1.25
2022-09-04T13:54:08.412Z,1.10
2022-09-04T13:56:44.000Z,1.35
2022-09-04T13:59:20.713Z,1.40
2022-09-04T14:01:55.042Z,1.70
2022-09-04T14:04:28.493Z,1.20
2022-09-04T14:07:07.096Z,1.75
2022-09-04T14:09:43.065Z,1.65
2022-09-04T14:12:23.391Z,1.77
2022-09-04T14:15:34.096Z,1.63
2022-09-04T14:18:19.044Z,1.45
2022-09-04T14:21:01.442Z,1.15
2022-09-04T14:23:48.144Z,1.40
2022-09-04T14:26:30.203Z,1.65
2022-09-04T14:29:09.170Z,1.65
2022-09-04T14:31:49.049Z,1.50
2022-09-04T14:34:33.941Z,11.82
2022-09-04T14:37:18.751Z,1.60
2022-09-04T14:39:50.659Z,1.35
2022-09-04T14:42:47.056Z,1.45
2022-09-04T14:45:31.811Z,1.52
2022-09-04T14:48:07.001Z,1.38
2022-09-04T14:50:50.679Z,1.33
2022-09-04T14:53:27.561Z,1.35
2022-09-04T14:56:33.026Z,1.70
2022-09-04T14:59:12.446Z,1.50
2022-09-04T15:02:14.869Z,1.10
2022-09-04T15:05:13.758Z,3.10
2022-09-04T15:07:56.739Z,2.70
2022-09-04T15:10:33.129Z,1.65
2022-09-04T15:13:35.415Z,1.60
2022-09-04T15:16:21.024Z,1.67
2022-09-04T15:18:59.233Z,1.88
2022-09-04T15:21:39.017Z,1.40
2022-09-04T15:24:18.109Z,1.70
2022-09-04T15:26:55.862Z,1.40
2022-09-04T15:29:29.933Z,1.98
2022-09-04T15:32:09.343Z,1.60
2022-09-04T15:34:43.180Z,1.65
2022-09-04T15:37:22.275Z,2.38
2022-09-04T15:40:02.327Z,1.80
2022-09-04T15:42:40.130Z,2.00
2022-09-04T15:45:18.375Z,2.38
2022-09-04T15:48:09.311Z,2.10
2022-09-04T15:50:51.506Z,1.88
2022-09-04T15:53:27.633Z,2.87
2022-09-04T15:56:29.842Z,1.90
2022-09-04T15:59:06.101Z,2.20
2022-09-04T16:01:44.692Z,2.35
2022-09-04T16:04:23.389Z,2.00
2022-09-04T16:06:59.062Z,2.40
2022-09-04T16:09:35.043Z,2.63
2022-09-04T16:12:11.339Z,3.00
2022-09-04T16:14:45.585Z,2.50
2022-09-04T16:17:21.031Z,3.17
2022-09-04T16:20:00.852Z,2.55
2022-09-04T16:22:42.160Z,3.30
2022-09-04T16:25:24.359Z,3.03
2022-09-04T16:28:02.506Z,2.20
2022-09-04T16:30:42.896Z,2.33
2022-09-04T16:33:28.247Z,2.17
2022-09-04T16:36:03.374Z,2.22
2022-09-04T16:38:40.821Z,2.63
2022-09-04T16:41:15.904Z,2.28
2022-09-04T16:44:12.038Z,2.42
2022-09-04T16:46:56.497Z,2.40
2022-09-04T16:49:32.555Z,2.40
2022-09-04T16:52:22.149Z,4.55
2022-09-04T16:54:55.461Z,3.60
2022-09-04T17:00:03.399Z,2.65
2022-09-04T17:05:17.925Z,4.57
2022-09-04T17:07:53.736Z,5.05
2022-09-04T17:10:36.660Z,4.00
2022-09-04T17:13:13.203Z,4.78
2022-09-04T17:15:53.678Z,4.88
2022-09-04T17:18:25.408Z,5.75
2022-09-04T17:24:34.820Z,3.78
2022-09-04T17:28:55.742Z,10.90
2022-09-04T17:29:18.571Z,5.50
2022-09-04T17:29:53.314Z,10.55
2022-09-04T17:33:58.454Z,8.25
2022-09-04T17:40:37.664Z,3.88
2022-09-04T17:40:50.563Z,3.83
2022-09-04T17:41:36.136Z,3.83
2022-09-04T17:44:25.581Z,3.65
2022-09-04T17:47:09.604Z,4.25
2022-09-04T17:49:45.958Z,5.57
2022-09-04T17:52:27.399Z,5.78
2022-09-04T17:55:03.378Z,5.25
2022-09-04T17:57:50.827Z,4.70
2022-09-04T18:00:22.086Z,4.53
2022-09-04T18:02:59.385Z,4.80
2022-09-04T18:05:34.961Z,5.30
2022-09-04T18:08:16.514Z,5.15
2022-09-04T18:10:53.817Z,3.92
2022-09-04T18:13:37.724Z,3.85
2022-09-04T18:16:19.653Z,3.60
2022-09-04T18:18:54.456Z,3.80
2022-09-04T18:21:28.778Z,4.13
2022-09-04T18:24:03.617Z,4.72
2022-09-04T18:26:41.454Z,6.47
2022-09-04T18:33:39.885Z,6.47
2022-09-04T18:37:12.133Z,5.43
2022-09-04T18:37:21.673Z,5.03
2022-09-04T18:38:42.179Z,6.13
2022-09-04T18:50:20.581Z,5.50
2022-09-04T18:50:28.624Z,7.78
2022-09-04T18:50:36.089Z,7.03
2022-09-04T18:50:43.761Z,6.38
2022-09-04T18:53:14.897Z,5.53
2022-09-04T18:55:47.434Z,5.15
2022-09-04T18:58:47.064Z,5.40
2022-09-04T19:01:27.380Z,5.53
2022-09-04T19:03:58.713Z,5.68
2022-09-04T19:06:34.586Z,5.80
2022-09-04T19:09:13.369Z,6.10
2022-09-04T19:11:49.040Z,6.78
2022-09-04T19:14:22.101Z,7.05
2022-09-04T19:16:56.203Z,6.10
2022-09-04T19:19:32.868Z,7.97
2022-09-04T19:22:12.103Z,6.85
2022-09-04T19:24:48.950Z,6.80
2022-09-04T19:27:28.197Z,7.85
2022-09-04T19:30:18.047Z,7.45
2022-09-04T19:33:09.971Z,7.25
2022-09-04T19:35:47.828Z,6.65
2022-09-04T19:44:13.571Z,6.82
2022-09-04T19:46:07.640Z,7.43
2022-09-04T19:46:15.050Z,6.43
2022-09-04T19:47:28.688Z,7.03
2022-09-04T19:53:21.885Z,8.02
2022-09-04T19:53:33.441Z,7.63
2022-09-04T19:56:08.547Z,7.15
2022-09-04T19:58:44.069Z,6.85
2022-09-04T20:01:17.114Z,6.40
2022-09-04T20:03:51.826Z,7.20
2022-09-04T20:06:27.650Z,5.78
2022-09-04T20:09:03.660Z,5.88
2022-09-04T20:11:40.961Z,6.50
2022-09-04T20:14:23.146Z,6.13
2022-09-04T20:17:10.017Z,6.60
2022-09-04T20:19:45.788Z,6.38
2022-09-04T20:22:28.337Z,6.18
2022-09-04T20:25:31.714Z,5.75
2022-09-04T20:28:15.429Z,5.93
2022-09-04T20:33:22.910Z,40.20
2022-09-04T20:38:30.559Z,6.47
2022-09-04T20:41:09.230Z,5.93
2022-09-04T20:43:48.791Z,5.40
2022-09-04T20:51:58.348Z,5.43
2022-09-04T20:52:56.058Z,5.00
2022-09-04T20:52:59.379Z,5.35
2022-09-04T20:55:33.806Z,4.93
2022-09-04T21:02:02.506Z,5.20
2022-09-04T21:03:23.726Z,4.72
2022-09-04T21:04:42.436Z,4.65
2022-09-04T21:07:20.588Z,4.65
2022-09-04T21:10:00.130Z,4.78
2022-09-04T21:12:37.381Z,4.75
2022-09-04T21:15:18.357Z,5.05
2022-09-04T21:18:18.698Z,6.57
2022-09-04T21:21:22.268Z,5.63
2022-09-04T21:24:13.082Z,8.10
2022-09-04T21:27:07.575Z,6.32
2022-09-04T21:29:53.036Z,5.72
2022-09-04T21:32:39.483Z,6.20
2022-09-04T21:35:17.123Z,6.13
2022-09-04T21:37:50.803Z,5.72
2022-09-04T21:40:52.525Z,5.13
2022-09-04T21:43:47.448Z,5.35
2022-09-04T21:46:34.380Z,5.28
2022-09-04T21:49:26.344Z,5.28
2022-09-04T21:52:17.069Z,6.22
2022-09-04T21:57:28.837Z,4.60
2022-09-04T22:02:40.290Z,4.63
2022-09-04T22:02:47.934Z,4.75
2022-09-04T22:04:47.477Z,5.32
2022-09-04T22:11:00.908Z,5.38
2022-09-04T22:13:28.961Z,5.38
2022-09-04T22:13:53.121Z,4.63
2022-09-04T22:16:49.006Z,4.82
2022-09-04T22:19:50.112Z,4.85
2022-09-04T22:22:43.234Z,4.75
2022-09-04T22:25:33.837Z,4.80
2022-09-04T22:28:37.230Z,4.93
2022-09-04T22:31:29.644Z,4.50
2022-09-04T22:34:28.592Z,5.13
2022-09-04T22:37:30.868Z,4.40
2022-09-04T22:40:18.846Z,4.97
2022-09-04T22:42:56.638Z,4.45
2022-09-04T22:45:46.456Z,4.82
2022-09-04T22:48:37.789Z,4.97
2022-09-04T22:51:22.026Z,4.80
2022-09-04T22:54:16.227Z,5.07
2022-09-04T22:56:54.969Z,6.28
2022-09-04T22:59:56.180Z,5.28
2022-09-04T23:03:14.130Z,5.13
2022-09-04T23:06:08.837Z,4.63
2022-09-04T23:13:46.379Z,4.32
2022-09-04T23:13:56.230Z,4.90
2022-09-04T23:16:00.353Z,4.53
2022-09-04T23:24:10.078Z,3.95
2022-09-04T23:26:35.202Z,3.95
2022-09-04T23:26:47.562Z,4.07
2022-09-04T23:28:27.916Z,4.90
2022-09-04T23:31:13.003Z,4.00
2022-09-04T23:34:06.367Z,4.30
2022-09-04T23:36:57.810Z,4.43
2022-09-04T23:39:53.353Z,4.68
2022-09-04T23:42:41.835Z,4.40
2022-09-04T23:45:30.640Z,4.30
2022-09-04T23:48:23.564Z,4.03
2022-09-04T23:51:00.849Z,4.03
2022-09-04T23:53:37.763Z,4.72
2022-09-04T23:56:22.875Z,4.53
2022-09-04T23:59:22.589Z,3.88
